Terminal Aerodrome Forecast
Issued by NWS

Home | Current Version | Previous Version | Text Only | Print | Product List | Glossary On
Versions: 1 2 3 4 5 6 7 8 9 10 11 12 13 14 15 16 17
443
FTUS46 KSGX 052333
TAFSNA
TAF
KSNA 052333Z 0600/0624 21009KT P6SM FEW250
     FM060100 VRB04KT P6SM SCT018 SCT250
     FM060400 VRB04KT P6SM OVC020
     FM061300 13010KT P6SM OVC025
     FM062100 19010KT P6SM BKN025=

USA.gov is the U.S. government's official web portal to all federal, state and local government web resources and services.